sensor_id;sensor_type;location;lat;lon;timestamp;P1;durP1;ratioP1;P2;durP2;ratioP2
6527;SDS011;64597;42.664;23.256;2023-08-06T00:02:12;5.70;;;2.50;;
6527;SDS011;64597;42.664;23.256;2023-08-06T00:04:37;2.80;;;1.90;;
6527;SDS011;64597;42.664;23.256;2023-08-06T00:07:03;3.80;;;2.47;;
6527;SDS011;64597;42.664;23.256;2023-08-06T00:09:29;4.18;;;2.45;;
6527;SDS011;64597;42.664;23.256;2023-08-06T00:11:54;4.45;;;2.70;;
6527;SDS011;64597;42.664;23.256;2023-08-06T00:14:19;3.40;;;2.08;;
6527;SDS011;64597;42.664;23.256;2023-08-06T00:16:45;5.13;;;2.80;;
6527;SDS011;64597;42.664;23.256;2023-08-06T00:19:10;4.90;;;2.65;;
6527;SDS011;64597;42.664;23.256;2023-08-06T00:21:36;3.97;;;2.60;;
6527;SDS011;64597;42.664;23.256;2023-08-06T00:24:01;4.47;;;2.58;;
6527;SDS011;64597;42.664;23.256;2023-08-06T00:26:27;2.90;;;2.45;;
6527;SDS011;64597;42.664;23.256;2023-08-06T00:28:52;3.80;;;2.70;;
6527;SDS011;64597;42.664;23.256;2023-08-06T00:31:17;4.20;;;2.60;;
6527;SDS011;64597;42.664;23.256;2023-08-06T00:33:43;4.55;;;2.35;;
6527;SDS011;64597;42.664;23.256;2023-08-06T00:36:08;3.50;;;2.20;;
6527;SDS011;64597;42.664;23.256;2023-08-06T00:38:33;5.20;;;2.30;;
6527;SDS011;64597;42.664;23.256;2023-08-06T00:40:59;4.00;;;2.53;;
6527;SDS011;64597;42.664;23.256;2023-08-06T00:43:24;3.63;;;2.20;;
6527;SDS011;64597;42.664;23.256;2023-08-06T00:45:50;5.63;;;2.10;;
6527;SDS011;64597;42.664;23.256;2023-08-06T00:48:15;4.03;;;2.47;;
6527;SDS011;64597;42.664;23.256;2023-08-06T00:50:41;3.97;;;2.17;;
6527;SDS011;64597;42.664;23.256;2023-08-06T00:53:07;2.95;;;2.08;;
6527;SDS011;64597;42.664;23.256;2023-08-06T00:55:33;4.60;;;1.88;;
6527;SDS011;64597;42.664;23.256;2023-08-06T00:57:58;5.50;;;2.08;;
6527;SDS011;64597;42.664;23.256;2023-08-06T01:00:24;3.78;;;2.15;;
6527;SDS011;64597;42.664;23.256;2023-08-06T01:02:51;2.55;;;1.92;;
6527;SDS011;64597;42.664;23.256;2023-08-06T01:05:18;5.38;;;2.15;;
6527;SDS011;64597;42.664;23.256;2023-08-06T01:10:51;3.65;;;2.15;;
6527;SDS011;64597;42.664;23.256;2023-08-06T01:13:41;2.97;;;2.20;;
6527;SDS011;64597;42.664;23.256;2023-08-06T01:16:11;3.63;;;2.13;;
6527;SDS011;64597;42.664;23.256;2023-08-06T01:18:40;4.60;;;2.33;;
6527;SDS011;64597;42.664;23.256;2023-08-06T01:21:07;3.83;;;2.30;;
6527;SDS011;64597;42.664;23.256;2023-08-06T01:23:32;4.10;;;2.45;;
6527;SDS011;64597;42.664;23.256;2023-08-06T01:28:54;3.83;;;2.40;;
6527;SDS011;64597;42.664;23.256;2023-08-06T01:34:00;4.57;;;2.33;;
6527;SDS011;64597;42.664;23.256;2023-08-06T01:36:28;4.40;;;2.40;;
6527;SDS011;64597;42.664;23.256;2023-08-06T01:38:55;3.85;;;2.20;;
6527;SDS011;64597;42.664;23.256;2023-08-06T01:41:22;5.25;;;2.65;;
6527;SDS011;64597;42.664;23.256;2023-08-06T01:43:47;4.18;;;2.22;;
6527;SDS011;64597;42.664;23.256;2023-08-06T01:46:13;5.50;;;3.40;;
6527;SDS011;64597;42.664;23.256;2023-08-06T01:48:38;3.53;;;2.40;;
6527;SDS011;64597;42.664;23.256;2023-08-06T01:51:04;2.97;;;2.10;;
6527;SDS011;64597;42.664;23.256;2023-08-06T01:53:30;3.13;;;2.13;;
6527;SDS011;64597;42.664;23.256;2023-08-06T01:55:56;4.07;;;2.33;;
6527;SDS011;64597;42.664;23.256;2023-08-06T01:58:22;3.75;;;2.22;;
6527;SDS011;64597;42.664;23.256;2023-08-06T02:00:47;2.78;;;2.03;;
6527;SDS011;64597;42.664;23.256;2023-08-06T02:03:13;3.75;;;2.13;;
6527;SDS011;64597;42.664;23.256;2023-08-06T02:05:38;2.80;;;1.90;;
6527;SDS011;64597;42.664;23.256;2023-08-06T02:08:05;4.43;;;2.50;;
6527;SDS011;64597;42.664;23.256;2023-08-06T02:10:30;4.95;;;3.17;;
6527;SDS011;64597;42.664;23.256;2023-08-06T02:12:55;3.05;;;1.90;;
6527;SDS011;64597;42.664;23.256;2023-08-06T02:15:21;3.63;;;2.50;;
6527;SDS011;64597;42.664;23.256;2023-08-06T02:17:46;3.05;;;2.05;;
6527;SDS011;64597;42.664;23.256;2023-08-06T02:20:12;5.25;;;2.88;;
6527;SDS011;64597;42.664;23.256;2023-08-06T02:22:37;7.07;;;2.72;;
6527;SDS011;64597;42.664;23.256;2023-08-06T02:25:03;4.95;;;2.70;;
6527;SDS011;64597;42.664;23.256;2023-08-06T02:27:28;5.40;;;3.20;;
6527;SDS011;64597;42.664;23.256;2023-08-06T02:29:54;7.88;;;2.75;;
6527;SDS011;64597;42.664;23.256;2023-08-06T02:32:19;4.15;;;2.15;;
6527;SDS011;64597;42.664;23.256;2023-08-06T02:34:45;6.28;;;2.45;;
6527;SDS011;64597;42.664;23.256;2023-08-06T02:37:10;6.70;;;2.90;;
6527;SDS011;64597;42.664;23.256;2023-08-06T02:39:35;4.82;;;2.63;;
6527;SDS011;64597;42.664;23.256;2023-08-06T02:42:04;4.05;;;2.10;;
6527;SDS011;64597;42.664;23.256;2023-08-06T02:44:31;3.88;;;2.13;;
6527;SDS011;64597;42.664;23.256;2023-08-06T02:46:56;3.13;;;2.20;;
6527;SDS011;64597;42.664;23.256;2023-08-06T02:49:21;5.53;;;2.17;;
6527;SDS011;64597;42.664;23.256;2023-08-06T02:51:47;5.95;;;2.60;;
6527;SDS011;64597;42.664;23.256;2023-08-06T02:54:12;3.90;;;2.70;;
6527;SDS011;64597;42.664;23.256;2023-08-06T02:56:38;3.60;;;2.25;;
6527;SDS011;64597;42.664;23.256;2023-08-06T02:59:03;3.78;;;2.15;;
6527;SDS011;64597;42.664;23.256;2023-08-06T03:01:29;3.63;;;1.80;;
6527;SDS011;64597;42.664;23.256;2023-08-06T03:03:54;3.40;;;2.50;;
6527;SDS011;64597;42.664;23.256;2023-08-06T03:06:20;4.95;;;2.78;;
6527;SDS011;64597;42.664;23.256;2023-08-06T03:08:45;4.90;;;2.60;;
6527;SDS011;64597;42.664;23.256;2023-08-06T03:11:11;4.53;;;2.50;;
6527;SDS011;64597;42.664;23.256;2023-08-06T03:13:36;4.40;;;2.38;;
6527;SDS011;64597;42.664;23.256;2023-08-06T03:16:02;6.15;;;2.50;;
6527;SDS011;64597;42.664;23.256;2023-08-06T03:18:27;4.18;;;2.10;;
6527;SDS011;64597;42.664;23.256;2023-08-06T03:20:53;4.20;;;2.45;;
6527;SDS011;64597;42.664;23.256;2023-08-06T03:23:18;3.30;;;2.55;;
6527;SDS011;64597;42.664;23.256;2023-08-06T03:25:44;2.60;;;1.90;;
6527;SDS011;64597;42.664;23.256;2023-08-06T03:28:10;2.75;;;1.73;;
6527;SDS011;64597;42.664;23.256;2023-08-06T03:30:35;3.00;;;2.15;;
6527;SDS011;64597;42.664;23.256;2023-08-06T03:33:01;2.97;;;2.00;;
6527;SDS011;64597;42.664;23.256;2023-08-06T03:35:26;5.28;;;2.03;;
6527;SDS011;64597;42.664;23.256;2023-08-06T03:37:52;3.80;;;2.33;;
6527;SDS011;64597;42.664;23.256;2023-08-06T03:40:17;2.90;;;2.28;;
6527;SDS011;64597;42.664;23.256;2023-08-06T03:42:43;4.10;;;2.30;;
6527;SDS011;64597;42.664;23.256;2023-08-06T03:45:08;3.78;;;2.30;;
6527;SDS011;64597;42.664;23.256;2023-08-06T03:47:34;3.58;;;2.13;;
6527;SDS011;64597;42.664;23.256;2023-08-06T03:49:59;4.10;;;1.88;;
6527;SDS011;64597;42.664;23.256;2023-08-06T03:52:25;3.50;;;2.00;;
6527;SDS011;64597;42.664;23.256;2023-08-06T03:54:50;3.33;;;2.40;;
6527;SDS011;64597;42.664;23.256;2023-08-06T03:57:16;2.80;;;2.10;;
6527;SDS011;64597;42.664;23.256;2023-08-06T03:59:41;3.42;;;2.25;;
6527;SDS011;64597;42.664;23.256;2023-08-06T04:02:07;4.15;;;2.70;;
6527;SDS011;64597;42.664;23.256;2023-08-06T04:04:32;2.67;;;2.05;;
6527;SDS011;64597;42.664;23.256;2023-08-06T04:06:58;4.28;;;2.47;;
6527;SDS011;64597;42.664;23.256;2023-08-06T04:09:23;4.70;;;3.03;;
6527;SDS011;64597;42.664;23.256;2023-08-06T04:11:48;4.75;;;2.47;;
6527;SDS011;64597;42.664;23.256;2023-08-06T04:14:14;5.10;;;2.78;;
6527;SDS011;64597;42.664;23.256;2023-08-06T04:16:39;3.60;;;2.70;;
6527;SDS011;64597;42.664;23.256;2023-08-06T04:19:05;3.35;;;2.63;;
6527;SDS011;64597;42.664;23.256;2023-08-06T04:21:30;3.78;;;2.40;;
6527;SDS011;64597;42.664;23.256;2023-08-06T04:23:56;5.22;;;2.92;;
6527;SDS011;64597;42.664;23.256;2023-08-06T04:26:21;2.88;;;2.20;;
6527;SDS011;64597;42.664;23.256;2023-08-06T04:28:47;6.05;;;3.30;;
6527;SDS011;64597;42.664;23.256;2023-08-06T04:31:13;5.28;;;3.00;;
6527;SDS011;64597;42.664;23.256;2023-08-06T04:33:39;5.68;;;3.20;;
6527;SDS011;64597;42.664;23.256;2023-08-06T04:36:05;4.25;;;3.15;;
6527;SDS011;64597;42.664;23.256;2023-08-06T04:38:31;7.40;;;3.30;;
6527;SDS011;64597;42.664;23.256;2023-08-06T04:40:57;6.28;;;3.28;;
6527;SDS011;64597;42.664;23.256;2023-08-06T04:43:23;4.63;;;3.10;;
6527;SDS011;64597;42.664;23.256;2023-08-06T04:45:48;3.95;;;2.80;;
6527;SDS011;64597;42.664;23.256;2023-08-06T04:48:15;4.65;;;3.20;;
6527;SDS011;64597;42.664;23.256;2023-08-06T04:50:47;5.00;;;3.70;;
6527;SDS011;64597;42.664;23.256;2023-08-06T04:53:14;5.65;;;3.22;;
6527;SDS011;64597;42.664;23.256;2023-08-06T04:55:40;7.80;;;4.25;;
6527;SDS011;64597;42.664;23.256;2023-08-06T04:58:06;7.65;;;5.35;;
6527;SDS011;64597;42.664;23.256;2023-08-06T05:00:31;7.18;;;4.70;;
6527;SDS011;64597;42.664;23.256;2023-08-06T05:02:59;8.02;;;4.80;;
6527;SDS011;64597;42.664;23.256;2023-08-06T05:05:26;7.35;;;4.65;;
6527;SDS011;64597;42.664;23.256;2023-08-06T05:07:53;6.20;;;3.92;;
6527;SDS011;64597;42.664;23.256;2023-08-06T05:10:20;5.57;;;4.00;;
6527;SDS011;64597;42.664;23.256;2023-08-06T05:12:45;8.05;;;5.13;;
6527;SDS011;64597;42.664;23.256;2023-08-06T05:15:11;7.50;;;4.53;;
6527;SDS011;64597;42.664;23.256;2023-08-06T05:17:36;7.65;;;4.90;;
6527;SDS011;64597;42.664;23.256;2023-08-06T05:20:02;7.90;;;5.53;;
6527;SDS011;64597;42.664;23.256;2023-08-06T05:22:28;9.68;;;5.57;;
6527;SDS011;64597;42.664;23.256;2023-08-06T05:24:53;6.28;;;4.75;;
6527;SDS011;64597;42.664;23.256;2023-08-06T05:27:18;6.28;;;4.20;;
6527;SDS011;64597;42.664;23.256;2023-08-06T05:29:44;5.25;;;4.10;;
6527;SDS011;64597;42.664;23.256;2023-08-06T05:32:10;7.30;;;4.38;;
6527;SDS011;64597;42.664;23.256;2023-08-06T05:34:36;4.93;;;3.65;;
6527;SDS011;64597;42.664;23.256;2023-08-06T05:37:02;6.32;;;4.72;;
6527;SDS011;64597;42.664;23.256;2023-08-06T05:39:28;4.85;;;3.55;;
6527;SDS011;64597;42.664;23.256;2023-08-06T05:41:53;6.70;;;4.20;;
6527;SDS011;64597;42.664;23.256;2023-08-06T05:44:20;5.82;;;4.35;;
6527;SDS011;64597;42.664;23.256;2023-08-06T05:46:46;5.47;;;4.20;;
6527;SDS011;64597;42.664;23.256;2023-08-06T05:49:11;6.57;;;4.95;;
6527;SDS011;64597;42.664;23.256;2023-08-06T05:51:38;6.28;;;4.43;;
6527;SDS011;64597;42.664;23.256;2023-08-06T05:54:04;9.10;;;5.00;;
6527;SDS011;64597;42.664;23.256;2023-08-06T05:56:29;7.75;;;5.57;;
6527;SDS011;64597;42.664;23.256;2023-08-06T05:58:55;7.22;;;5.32;;
6527;SDS011;64597;42.664;23.256;2023-08-06T06:01:20;9.38;;;5.88;;
6527;SDS011;64597;42.664;23.256;2023-08-06T06:03:46;9.35;;;6.40;;
6527;SDS011;64597;42.664;23.256;2023-08-06T06:06:11;7.35;;;6.03;;
6527;SDS011;64597;42.664;23.256;2023-08-06T06:08:37;9.43;;;6.80;;
6527;SDS011;64597;42.664;23.256;2023-08-06T06:11:02;8.90;;;6.38;;
6527;SDS011;64597;42.664;23.256;2023-08-06T06:13:28;9.82;;;6.32;;
6527;SDS011;64597;42.664;23.256;2023-08-06T06:15:54;10.52;;;7.20;;
6527;SDS011;64597;42.664;23.256;2023-08-06T06:18:20;10.82;;;7.10;;
6527;SDS011;64597;42.664;23.256;2023-08-06T06:20:46;8.93;;;5.63;;
6527;SDS011;64597;42.664;23.256;2023-08-06T06:23:11;6.47;;;3.75;;
6527;SDS011;64597;42.664;23.256;2023-08-06T06:25:41;5.78;;;3.63;;
6527;SDS011;64597;42.664;23.256;2023-08-06T06:28:07;4.80;;;3.58;;
6527;SDS011;64597;42.664;23.256;2023-08-06T06:30:33;7.15;;;5.32;;
6527;SDS011;64597;42.664;23.256;2023-08-06T06:32:59;8.15;;;4.88;;
6527;SDS011;64597;42.664;23.256;2023-08-06T06:35:24;8.68;;;5.45;;
6527;SDS011;64597;42.664;23.256;2023-08-06T06:37:50;8.27;;;5.97;;
6527;SDS011;64597;42.664;23.256;2023-08-06T06:40:15;7.63;;;4.97;;
6527;SDS011;64597;42.664;23.256;2023-08-06T06:42:40;15.68;;;9.45;;
6527;SDS011;64597;42.664;23.256;2023-08-06T06:45:06;14.35;;;9.23;;
6527;SDS011;64597;42.664;23.256;2023-08-06T06:47:32;8.75;;;5.90;;
6527;SDS011;64597;42.664;23.256;2023-08-06T06:49:58;8.68;;;5.00;;
6527;SDS011;64597;42.664;23.256;2023-08-06T06:52:23;6.95;;;4.03;;
6527;SDS011;64597;42.664;23.256;2023-08-06T06:54:49;7.25;;;4.57;;
6527;SDS011;64597;42.664;23.256;2023-08-06T06:57:14;7.22;;;3.97;;
6527;SDS011;64597;42.664;23.256;2023-08-06T06:59:40;5.15;;;4.25;;
6527;SDS011;64597;42.664;23.256;2023-08-06T07:02:05;4.80;;;3.78;;
6527;SDS011;64597;42.664;23.256;2023-08-06T07:04:31;5.55;;;4.18;;
6527;SDS011;64597;42.664;23.256;2023-08-06T07:06:56;5.03;;;3.78;;
6527;SDS011;64597;42.664;23.256;2023-08-06T07:09:22;4.93;;;3.78;;
6527;SDS011;64597;42.664;23.256;2023-08-06T07:11:47;5.32;;;4.00;;
6527;SDS011;64597;42.664;23.256;2023-08-06T07:14:13;4.70;;;3.70;;
6527;SDS011;64597;42.664;23.256;2023-08-06T07:16:39;5.90;;;3.78;;
6527;SDS011;64597;42.664;23.256;2023-08-06T07:19:05;3.92;;;3.20;;
6527;SDS011;64597;42.664;23.256;2023-08-06T07:21:30;3.75;;;2.92;;
6527;SDS011;64597;42.664;23.256;2023-08-06T07:23:57;3.50;;;2.67;;
6527;SDS011;64597;42.664;23.256;2023-08-06T07:26:24;5.15;;;2.88;;
6527;SDS011;64597;42.664;23.256;2023-08-06T07:28:49;3.95;;;2.80;;
6527;SDS011;64597;42.664;23.256;2023-08-06T07:31:15;4.72;;;2.75;;
6527;SDS011;64597;42.664;23.256;2023-08-06T07:33:41;4.28;;;2.70;;
6527;SDS011;64597;42.664;23.256;2023-08-06T07:36:13;3.90;;;2.53;;
6527;SDS011;64597;42.664;23.256;2023-08-06T07:38:40;3.15;;;2.58;;
6527;SDS011;64597;42.664;23.256;2023-08-06T07:41:06;4.22;;;2.47;;
6527;SDS011;64597;42.664;23.256;2023-08-06T07:43:32;4.95;;;2.95;;
6527;SDS011;64597;42.664;23.256;2023-08-06T07:45:58;2.85;;;2.60;;
6527;SDS011;64597;42.664;23.256;2023-08-06T07:48:25;4.75;;;2.90;;
6527;SDS011;64597;42.664;23.256;2023-08-06T07:50:57;2.67;;;2.40;;
6527;SDS011;64597;42.664;23.256;2023-08-06T07:53:23;3.85;;;2.58;;
6527;SDS011;64597;42.664;23.256;2023-08-06T07:55:52;3.55;;;2.35;;
6527;SDS011;64597;42.664;23.256;2023-08-06T07:58:19;3.20;;;2.90;;
6527;SDS011;64597;42.664;23.256;2023-08-06T08:00:45;4.50;;;2.42;;
6527;SDS011;64597;42.664;23.256;2023-08-06T08:03:11;4.47;;;2.28;;
6527;SDS011;64597;42.664;23.256;2023-08-06T08:05:38;2.83;;;2.60;;
6527;SDS011;64597;42.664;23.256;2023-08-06T08:08:04;3.28;;;2.85;;
6527;SDS011;64597;42.664;23.256;2023-08-06T08:10:30;3.55;;;2.58;;
6527;SDS011;64597;42.664;23.256;2023-08-06T08:12:56;3.97;;;3.22;;
6527;SDS011;64597;42.664;23.256;2023-08-06T08:15:22;3.28;;;2.80;;
6527;SDS011;64597;42.664;23.256;2023-08-06T08:17:47;5.00;;;2.70;;
6527;SDS011;64597;42.664;23.256;2023-08-06T08:20:14;3.03;;;2.63;;
6527;SDS011;64597;42.664;23.256;2023-08-06T08:22:41;3.35;;;2.60;;
6527;SDS011;64597;42.664;23.256;2023-08-06T08:25:07;2.85;;;2.20;;
6527;SDS011;64597;42.664;23.256;2023-08-06T08:27:34;6.38;;;3.00;;
6527;SDS011;64597;42.664;23.256;2023-08-06T08:29:59;4.22;;;2.88;;
6527;SDS011;64597;42.664;23.256;2023-08-06T08:32:25;3.85;;;2.60;;
6527;SDS011;64597;42.664;23.256;2023-08-06T08:34:51;3.08;;;2.72;;
6527;SDS011;64597;42.664;23.256;2023-08-06T08:37:16;2.60;;;2.40;;
6527;SDS011;64597;42.664;23.256;2023-08-06T08:39:43;4.38;;;2.30;;
6527;SDS011;64597;42.664;23.256;2023-08-06T08:42:09;3.35;;;2.95;;
6527;SDS011;64597;42.664;23.256;2023-08-06T08:44:35;4.65;;;2.58;;
6527;SDS011;64597;42.664;23.256;2023-08-06T08:47:04;2.78;;;2.53;;
6527;SDS011;64597;42.664;23.256;2023-08-06T08:49:34;3.10;;;2.75;;
6527;SDS011;64597;42.664;23.256;2023-08-06T08:52:02;2.95;;;2.65;;
6527;SDS011;64597;42.664;23.256;2023-08-06T08:54:31;6.75;;;2.70;;
6527;SDS011;64597;42.664;23.256;2023-08-06T08:56:58;4.55;;;2.67;;
6527;SDS011;64597;42.664;23.256;2023-08-06T08:59:24;3.00;;;2.45;;
6527;SDS011;64597;42.664;23.256;2023-08-06T09:01:50;3.80;;;3.00;;
6527;SDS011;64597;42.664;23.256;2023-08-06T09:04:17;3.10;;;2.70;;
6527;SDS011;64597;42.664;23.256;2023-08-06T09:06:43;3.30;;;2.95;;
6527;SDS011;64597;42.664;23.256;2023-08-06T09:09:16;3.45;;;2.72;;
6527;SDS011;64597;42.664;23.256;2023-08-06T09:11:50;3.05;;;2.78;;
6527;SDS011;64597;42.664;23.256;2023-08-06T09:14:16;3.85;;;2.35;;
6527;SDS011;64597;42.664;23.256;2023-08-06T09:16:42;3.20;;;2.65;;
6527;SDS011;64597;42.664;23.256;2023-08-06T09:19:08;2.95;;;2.40;;
6527;SDS011;64597;42.664;23.256;2023-08-06T09:21:41;4.00;;;2.45;;
6527;SDS011;64597;42.664;23.256;2023-08-06T09:24:08;2.80;;;2.50;;
6527;SDS011;64597;42.664;23.256;2023-08-06T09:26:36;3.13;;;2.63;;
6527;SDS011;64597;42.664;23.256;2023-08-06T09:31:33;3.22;;;2.50;;
6527;SDS011;64597;42.664;23.256;2023-08-06T09:34:18;4.18;;;2.90;;
6527;SDS011;64597;42.664;23.256;2023-08-06T09:36:53;2.95;;;2.50;;
6527;SDS011;64597;42.664;23.256;2023-08-06T09:39:19;4.32;;;2.53;;
6527;SDS011;64597;42.664;23.256;2023-08-06T09:41:46;3.78;;;3.28;;
6527;SDS011;64597;42.664;23.256;2023-08-06T09:44:18;3.55;;;2.60;;
6527;SDS011;64597;42.664;23.256;2023-08-06T09:46:49;3.42;;;2.30;;
6527;SDS011;64597;42.664;23.256;2023-08-06T09:49:20;3.90;;;2.50;;
6527;SDS011;64597;42.664;23.256;2023-08-06T09:51:47;2.60;;;1.73;;
6527;SDS011;64597;42.664;23.256;2023-08-06T09:54:16;2.33;;;1.75;;
6527;SDS011;64597;42.664;23.256;2023-08-06T09:56:43;3.85;;;1.98;;
6527;SDS011;64597;42.664;23.256;2023-08-06T09:59:08;2.08;;;1.77;;
6527;SDS011;64597;42.664;23.256;2023-08-06T10:01:36;2.78;;;1.88;;
6527;SDS011;64597;42.664;23.256;2023-08-06T10:04:02;3.63;;;1.85;;
6527;SDS011;64597;42.664;23.256;2023-08-06T10:06:31;4.22;;;2.35;;
6527;SDS011;64597;42.664;23.256;2023-08-06T10:09:00;2.75;;;2.28;;
6527;SDS011;64597;42.664;23.256;2023-08-06T10:11:25;4.13;;;2.40;;
6527;SDS011;64597;42.664;23.256;2023-08-06T10:13:55;2.83;;;1.90;;
6527;SDS011;64597;42.664;23.256;2023-08-06T10:16:28;2.42;;;1.60;;
6527;SDS011;64597;42.664;23.256;2023-08-06T10:18:54;1.90;;;1.70;;
6527;SDS011;64597;42.664;23.256;2023-08-06T10:21:23;3.47;;;2.20;;
6527;SDS011;64597;42.664;23.256;2023-08-06T10:26:18;14.27;;;12.80;;
6527;SDS011;64597;42.664;23.256;2023-08-06T10:28:44;9.18;;;6.22;;
6527;SDS011;64597;42.664;23.256;2023-08-06T10:31:09;2.85;;;2.40;;
6527;SDS011;64597;42.664;23.256;2023-08-06T10:36:08;2.10;;;1.77;;
6527;SDS011;64597;42.664;23.256;2023-08-06T10:38:49;3.13;;;2.30;;
6527;SDS011;64597;42.664;23.256;2023-08-06T10:41:21;4.05;;;2.00;;
6527;SDS011;64597;42.664;23.256;2023-08-06T10:43:49;2.72;;;1.95;;
6527;SDS011;64597;42.664;23.256;2023-08-06T10:46:27;2.85;;;1.90;;
6527;SDS011;64597;42.664;23.256;2023-08-06T10:48:54;2.17;;;1.83;;
6527;SDS011;64597;42.664;23.256;2023-08-06T10:51:19;2.20;;;1.85;;
6527;SDS011;64597;42.664;23.256;2023-08-06T10:53:45;4.07;;;2.20;;
6527;SDS011;64597;42.664;23.256;2023-08-06T10:56:13;3.28;;;2.20;;
6527;SDS011;64597;42.664;23.256;2023-08-06T10:58:39;4.05;;;3.42;;
6527;SDS011;64597;42.664;23.256;2023-08-06T11:01:05;2.85;;;2.10;;
6527;SDS011;64597;42.664;23.256;2023-08-06T11:03:32;3.88;;;2.42;;
6527;SDS011;64597;42.664;23.256;2023-08-06T11:05:59;4.18;;;2.03;;
6527;SDS011;64597;42.664;23.256;2023-08-06T11:08:25;2.60;;;2.13;;
6527;SDS011;64597;42.664;23.256;2023-08-06T11:10:55;3.20;;;1.70;;
6527;SDS011;64597;42.664;23.256;2023-08-06T11:13:32;3.33;;;1.98;;
6527;SDS011;64597;42.664;23.256;2023-08-06T11:15:58;4.75;;;2.58;;
6527;SDS011;64597;42.664;23.256;2023-08-06T11:18:23;8.27;;;3.00;;
6527;SDS011;64597;42.664;23.256;2023-08-06T11:20:49;8.27;;;3.63;;
6527;SDS011;64597;42.664;23.256;2023-08-06T11:23:14;6.85;;;2.65;;
6527;SDS011;64597;42.664;23.256;2023-08-06T11:25:46;4.47;;;2.70;;
6527;SDS011;64597;42.664;23.256;2023-08-06T11:28:12;4.32;;;2.95;;
6527;SDS011;64597;42.664;23.256;2023-08-06T11:30:38;5.07;;;3.00;;
6527;SDS011;64597;42.664;23.256;2023-08-06T11:33:06;4.30;;;2.67;;
6527;SDS011;64597;42.664;23.256;2023-08-06T11:35:35;3.45;;;2.60;;
6527;SDS011;64597;42.664;23.256;2023-08-06T11:38:01;4.10;;;3.15;;
6527;SDS011;64597;42.664;23.256;2023-08-06T11:40:26;4.18;;;3.10;;
6527;SDS011;64597;42.664;23.256;2023-08-06T11:42:52;4.68;;;2.70;;
6527;SDS011;64597;42.664;23.256;2023-08-06T11:45:21;3.60;;;2.85;;
6527;SDS011;64597;42.664;23.256;2023-08-06T11:47:49;3.33;;;2.70;;
6527;SDS011;64597;42.664;23.256;2023-08-06T11:50:24;4.88;;;3.20;;
6527;SDS011;64597;42.664;23.256;2023-08-06T11:52:55;3.83;;;2.67;;
6527;SDS011;64597;42.664;23.256;2023-08-06T11:55:23;3.22;;;2.92;;
6527;SDS011;64597;42.664;23.256;2023-08-06T11:57:49;3.65;;;2.80;;
6527;SDS011;64597;42.664;23.256;2023-08-06T12:00:14;4.70;;;3.05;;
6527;SDS011;64597;42.664;23.256;2023-08-06T12:02:42;3.38;;;2.80;;
6527;SDS011;64597;42.664;23.256;2023-08-06T12:07:44;3.20;;;2.90;;
6527;SDS011;64597;42.664;23.256;2023-08-06T12:10:11;4.43;;;3.53;;
6527;SDS011;64597;42.664;23.256;2023-08-06T12:12:37;4.68;;;3.45;;
6527;SDS011;64597;42.664;23.256;2023-08-06T12:15:04;4.65;;;3.60;;
6527;SDS011;64597;42.664;23.256;2023-08-06T12:22:22;4.40;;;3.42;;
6527;SDS011;64597;42.664;23.256;2023-08-06T12:24:47;4.28;;;3.85;;
6527;SDS011;64597;42.664;23.256;2023-08-06T12:27:13;4.55;;;4.03;;
6527;SDS011;64597;42.664;23.256;2023-08-06T12:29:40;5.20;;;4.05;;
6527;SDS011;64597;42.664;23.256;2023-08-06T12:32:07;7.13;;;3.97;;
6527;SDS011;64597;42.664;23.256;2023-08-06T12:34:33;4.57;;;4.00;;
6527;SDS011;64597;42.664;23.256;2023-08-06T12:36:58;5.70;;;3.47;;
6527;SDS011;64597;42.664;23.256;2023-08-06T12:39:24;5.00;;;4.22;;
6527;SDS011;64597;42.664;23.256;2023-08-06T12:41:49;5.97;;;3.97;;
6527;SDS011;64597;42.664;23.256;2023-08-06T12:44:15;3.50;;;3.15;;
6527;SDS011;64597;42.664;23.256;2023-08-06T12:46:40;4.03;;;3.63;;
6527;SDS011;64597;42.664;23.256;2023-08-06T12:49:06;5.90;;;3.92;;
6527;SDS011;64597;42.664;23.256;2023-08-06T12:51:34;3.95;;;3.47;;
6527;SDS011;64597;42.664;23.256;2023-08-06T12:53:59;3.72;;;3.40;;
6527;SDS011;64597;42.664;23.256;2023-08-06T12:56:26;4.15;;;3.72;;
6527;SDS011;64597;42.664;23.256;2023-08-06T12:58:51;4.53;;;3.63;;
6527;SDS011;64597;42.664;23.256;2023-08-06T13:01:17;4.72;;;3.83;;
6527;SDS011;64597;42.664;23.256;2023-08-06T13:03:42;5.45;;;4.20;;
6527;SDS011;64597;42.664;23.256;2023-08-06T13:06:08;5.43;;;4.55;;
6527;SDS011;64597;42.664;23.256;2023-08-06T13:08:34;5.03;;;3.75;;
6527;SDS011;64597;42.664;23.256;2023-08-06T13:11:00;3.60;;;3.13;;
6527;SDS011;64597;42.664;23.256;2023-08-06T13:13:26;4.70;;;3.50;;
6527;SDS011;64597;42.664;23.256;2023-08-06T13:15:52;4.20;;;3.40;;
6527;SDS011;64597;42.664;23.256;2023-08-06T13:18:17;7.25;;;3.70;;
6527;SDS011;64597;42.664;23.256;2023-08-06T13:20:43;4.63;;;3.92;;
6527;SDS011;64597;42.664;23.256;2023-08-06T13:23:09;4.22;;;3.83;;
6527;SDS011;64597;42.664;23.256;2023-08-06T13:25:35;4.75;;;4.35;;
6527;SDS011;64597;42.664;23.256;2023-08-06T13:28:05;5.85;;;4.03;;
6527;SDS011;64597;42.664;23.256;2023-08-06T13:30:30;7.15;;;3.90;;
6527;SDS011;64597;42.664;23.256;2023-08-06T13:32:56;4.30;;;3.90;;
6527;SDS011;64597;42.664;23.256;2023-08-06T13:35:22;4.03;;;3.60;;
6527;SDS011;64597;42.664;23.256;2023-08-06T13:37:48;4.68;;;3.55;;
6527;SDS011;64597;42.664;23.256;2023-08-06T13:40:14;3.95;;;3.60;;
6527;SDS011;64597;42.664;23.256;2023-08-06T13:42:39;5.63;;;4.57;;
6527;SDS011;64597;42.664;23.256;2023-08-06T13:45:05;5.65;;;3.53;;
6527;SDS011;64597;42.664;23.256;2023-08-06T13:47:32;3.72;;;3.33;;
6527;SDS011;64597;42.664;23.256;2023-08-06T13:49:57;4.35;;;3.45;;
6527;SDS011;64597;42.664;23.256;2023-08-06T13:52:22;4.90;;;3.60;;
6527;SDS011;64597;42.664;23.256;2023-08-06T13:54:50;4.50;;;4.10;;
6527;SDS011;64597;42.664;23.256;2023-08-06T13:57:15;4.00;;;3.63;;
6527;SDS011;64597;42.664;23.256;2023-08-06T13:59:42;4.35;;;3.60;;
6527;SDS011;64597;42.664;23.256;2023-08-06T14:02:08;5.60;;;3.67;;
6527;SDS011;64597;42.664;23.256;2023-08-06T14:04:34;7.40;;;4.53;;
6527;SDS011;64597;42.664;23.256;2023-08-06T14:06:59;4.82;;;3.38;;
6527;SDS011;64597;42.664;23.256;2023-08-06T14:09:24;4.07;;;3.65;;
6527;SDS011;64597;42.664;23.256;2023-08-06T14:11:50;5.18;;;3.63;;
6527;SDS011;64597;42.664;23.256;2023-08-06T14:14:15;3.90;;;3.30;;
6527;SDS011;64597;42.664;23.256;2023-08-06T14:16:41;3.35;;;3.05;;
6527;SDS011;64597;42.664;23.256;2023-08-06T14:19:06;4.53;;;3.90;;
6527;SDS011;64597;42.664;23.256;2023-08-06T14:21:31;4.28;;;3.13;;
6527;SDS011;64597;42.664;23.256;2023-08-06T14:23:57;2.90;;;2.40;;
6527;SDS011;64597;42.664;23.256;2023-08-06T14:26:22;2.58;;;2.38;;
6527;SDS011;64597;42.664;23.256;2023-08-06T14:28:48;3.33;;;2.80;;
6527;SDS011;64597;42.664;23.256;2023-08-06T14:31:13;4.18;;;3.05;;
6527;SDS011;64597;42.664;23.256;2023-08-06T14:33:39;3.40;;;2.72;;
6527;SDS011;64597;42.664;23.256;2023-08-06T14:36:04;2.80;;;2.50;;
6527;SDS011;64597;42.664;23.256;2023-08-06T14:38:30;3.08;;;1.83;;
6527;SDS011;64597;42.664;23.256;2023-08-06T14:40:55;2.88;;;1.77;;
6527;SDS011;64597;42.664;23.256;2023-08-06T14:43:21;5.30;;;1.70;;
6527;SDS011;64597;42.664;23.256;2023-08-06T14:45:47;1.70;;;1.60;;
6527;SDS011;64597;42.664;23.256;2023-08-06T14:48:12;4.25;;;1.60;;
6527;SDS011;64597;42.664;23.256;2023-08-06T14:50:40;3.42;;;1.85;;
6527;SDS011;64597;42.664;23.256;2023-08-06T14:53:06;1.80;;;1.70;;
6527;SDS011;64597;42.664;23.256;2023-08-06T14:55:33;2.28;;;1.83;;
6527;SDS011;64597;42.664;23.256;2023-08-06T14:58:00;3.25;;;2.90;;
6527;SDS011;64597;42.664;23.256;2023-08-06T15:00:26;3.05;;;2.10;;
6527;SDS011;64597;42.664;23.256;2023-08-06T15:02:51;2.42;;;1.45;;
6527;SDS011;64597;42.664;23.256;2023-08-06T15:05:17;2.17;;;1.83;;
6527;SDS011;64597;42.664;23.256;2023-08-06T15:07:42;5.80;;;2.47;;